createdAt,value
2023-02-16T00:00:51.705Z,47.80
2023-02-16T00:03:25.723Z,47.70
2023-02-16T00:05:59.656Z,48.00
2023-02-16T00:08:33.474Z,48.00
2023-02-16T00:11:29.595Z,48.00
2023-02-16T00:14:04.057Z,48.00
2023-02-16T00:16:38.555Z,47.90
2023-02-16T00:19:21.796Z,47.90
2023-02-16T00:21:57.245Z,47.80
2023-02-16T00:24:31.882Z,47.70
2023-02-16T00:27:14.392Z,47.40
2023-02-16T00:29:48.172Z,47.50
2023-02-16T00:32:21.701Z,47.50
2023-02-16T00:34:55.477Z,47.50
2023-02-16T00:37:29.003Z,47.50
2023-02-16T00:40:04.911Z,47.60
2023-02-16T00:42:40.493Z,47.60
2023-02-16T00:45:20.136Z,47.70
2023-02-16T00:47:55.239Z,47.80
2023-02-16T00:50:33.845Z,48.00
2023-02-16T00:53:07.633Z,48.20
2023-02-16T00:55:41.900Z,48.30
2023-02-16T00:58:23.401Z,48.80
2023-02-16T01:01:00.718Z,48.70
2023-02-16T01:03:34.555Z,48.90
2023-02-16T01:06:28.577Z,49.00
2023-02-16T01:09:31.729Z,49.00
2023-02-16T01:12:10.473Z,49.20
2023-02-16T01:14:48.540Z,49.20
2023-02-16T01:17:22.466Z,49.40
2023-02-16T01:19:56.260Z,49.40
2023-02-16T01:22:33.537Z,49.50
2023-02-16T01:25:07.935Z,49.80
2023-02-16T01:27:42.188Z,49.70
2023-02-16T01:30:20.958Z,49.90
2023-02-16T01:32:55.434Z,50.00
2023-02-16T01:35:33.419Z,50.00
2023-02-16T01:38:07.359Z,50.00
2023-02-16T01:40:45.895Z,50.10
2023-02-16T01:43:23.651Z,50.20
2023-02-16T01:46:03.672Z,50.10
2023-02-16T01:48:37.504Z,49.90
2023-02-16T01:51:15.690Z,49.90
2023-02-16T01:53:53.693Z,49.60
2023-02-16T01:56:33.915Z,49.80
2023-02-16T01:59:17.446Z,49.80
2023-02-16T02:01:58.138Z,49.70
2023-02-16T02:04:57.268Z,49.70
2023-02-16T02:07:38.738Z,49.70
2023-02-16T02:10:17.608Z,49.70
2023-02-16T02:12:57.218Z,49.70
2023-02-16T02:15:33.645Z,49.60
2023-02-16T02:18:09.019Z,49.60
2023-02-16T02:21:19.403Z,49.50
2023-02-16T02:24:21.158Z,49.40
2023-02-16T02:27:17.395Z,49.20
2023-02-16T02:30:13.001Z,49.30
2023-02-16T02:32:58.067Z,49.80
2023-02-16T02:35:40.950Z,50.60
2023-02-16T02:38:22.347Z,50.90
2023-02-16T02:41:05.441Z,50.90
2023-02-16T02:43:47.299Z,51.10
2023-02-16T02:46:25.938Z,51.10
2023-02-16T02:49:00.043Z,51.20
2023-02-16T02:51:34.058Z,51.30
2023-02-16T02:54:35.151Z,51.30
2023-02-16T02:57:37.077Z,51.40
2023-02-16T03:00:34.013Z,51.50
2023-02-16T03:03:12.467Z,51.50
2023-02-16T03:05:49.372Z,51.50
2023-02-16T03:08:26.744Z,51.50
2023-02-16T03:11:22.444Z,51.50
2023-02-16T03:13:59.631Z,51.60
2023-02-16T03:16:39.239Z,51.60
2023-02-16T03:19:32.989Z,51.60
2023-02-16T03:22:24.543Z,51.60
2023-02-16T03:25:15.564Z,51.50
2023-02-16T03:28:06.639Z,51.60
2023-02-16T03:30:40.638Z,51.60
2023-02-16T03:33:16.159Z,51.60
2023-02-16T03:35:50.059Z,51.70
2023-02-16T03:38:24.310Z,51.70
2023-02-16T03:40:58.072Z,51.60
2023-02-16T03:43:31.588Z,51.60
2023-02-16T03:46:05.564Z,51.60
2023-02-16T03:48:40.874Z,51.60
2023-02-16T03:51:14.657Z,51.60
2023-02-16T03:53:48.134Z,51.60
2023-02-16T03:56:22.120Z,51.60
2023-02-16T03:58:55.906Z,51.50
2023-02-16T04:01:29.361Z,51.50
2023-02-16T04:04:04.585Z,51.60
2023-02-16T04:06:38.332Z,51.60
2023-02-16T04:09:12.295Z,51.60
2023-02-16T04:12:03.444Z,51.60
2023-02-16T04:14:37.190Z,51.60
2023-02-16T04:17:10.949Z,51.60
2023-02-16T04:19:45.842Z,51.60
2023-02-16T04:22:19.640Z,51.60
2023-02-16T04:24:53.122Z,51.60
2023-02-16T04:27:26.988Z,51.60
2023-02-16T04:30:00.830Z,51.60
2023-02-16T04:32:34.893Z,51.60
2023-02-16T04:35:10.781Z,51.70
2023-02-16T04:37:44.724Z,51.60
2023-02-16T04:40:19.475Z,51.70
2023-02-16T04:42:53.254Z,51.70
2023-02-16T04:45:26.753Z,51.70
2023-02-16T04:48:00.525Z,51.80
2023-02-16T04:50:35.477Z,51.70
2023-02-16T04:53:09.331Z,51.80
2023-02-16T04:55:46.580Z,51.80
2023-02-16T04:58:20.407Z,51.80
2023-02-16T05:00:53.896Z,51.80
2023-02-16T05:03:27.780Z,51.80
2023-02-16T05:06:02.677Z,51.80
2023-02-16T05:08:36.484Z,51.90
2023-02-16T05:11:27.576Z,51.80
2023-02-16T05:14:19.365Z,51.90
2023-02-16T05:16:54.292Z,51.80
2023-02-16T05:19:28.133Z,51.90
2023-02-16T05:22:03.121Z,51.90
2023-02-16T05:24:37.859Z,52.20
2023-02-16T05:27:14.939Z,52.00
2023-02-16T05:29:48.849Z,51.90
2023-02-16T05:32:23.435Z,51.90
2023-02-16T05:34:57.263Z,51.90
2023-02-16T05:37:32.679Z,51.90
2023-02-16T05:40:07.726Z,51.90
2023-02-16T05:42:41.543Z,51.90
2023-02-16T05:45:15.052Z,51.90
2023-02-16T05:47:48.821Z,52.20
2023-02-16T05:50:22.395Z,52.10
2023-02-16T05:52:57.770Z,52.30
2023-02-16T05:55:31.597Z,52.20
2023-02-16T05:58:05.411Z,52.20
2023-02-16T06:00:38.954Z,52.10
2023-02-16T06:03:12.733Z,51.80
2023-02-16T06:05:46.336Z,51.60
2023-02-16T06:08:21.625Z,51.10
2023-02-16T06:10:56.255Z,51.70
2023-02-16T06:13:30.104Z,51.60
2023-02-16T06:16:03.707Z,51.40
2023-02-16T06:18:37.572Z,50.90
2023-02-16T06:21:11.099Z,50.80
2023-02-16T06:23:46.303Z,50.10
2023-02-16T06:26:21.335Z,50.50
2023-02-16T06:28:55.196Z,50.10
2023-02-16T06:31:29.374Z,49.80
2023-02-16T06:34:04.048Z,49.80
2023-02-16T06:36:38.711Z,49.60
2023-02-16T06:39:15.749Z,49.40
2023-02-16T06:41:49.541Z,49.20
2023-02-16T06:44:23.071Z,49.00
2023-02-16T06:46:56.880Z,48.40
2023-02-16T06:49:30.557Z,48.80
2023-02-16T06:52:04.530Z,48.20
2023-02-16T06:54:39.705Z,48.50
2023-02-16T06:57:13.525Z,48.20
2023-02-16T06:59:47.079Z,48.10
2023-02-16T07:02:21.070Z,48.00
2023-02-16T07:04:54.913Z,48.00
2023-02-16T07:07:28.831Z,48.00
2023-02-16T07:10:04.055Z,48.00
2023-02-16T07:12:37.975Z,48.30
2023-02-16T07:15:11.912Z,48.50
2023-02-16T07:17:45.741Z,48.60
2023-02-16T07:20:19.642Z,48.80
2023-02-16T07:22:53.409Z,49.20
2023-02-16T07:25:28.896Z,49.70
2023-02-16T07:28:02.715Z,50.50
2023-02-16T07:30:37.257Z,50.60
2023-02-16T07:33:11.271Z,51.20
2023-02-16T07:35:45.707Z,51.20
2023-02-16T07:38:19.711Z,51.60
2023-02-16T07:40:54.598Z,52.00
2023-02-16T07:43:28.521Z,52.20
2023-02-16T07:46:02.641Z,52.00
2023-02-16T07:48:36.819Z,52.10
2023-02-16T07:51:10.823Z,52.10
2023-02-16T07:53:45.102Z,52.20
2023-02-16T07:56:26.894Z,52.20
2023-02-16T07:59:02.289Z,52.40
2023-02-16T08:01:36.163Z,52.40
2023-02-16T08:04:10.179Z,52.20
2023-02-16T08:06:44.300Z,52.30
2023-02-16T08:09:18.476Z,52.30
2023-02-16T08:11:53.842Z,52.40
2023-02-16T08:14:27.792Z,52.40
2023-02-16T08:17:01.753Z,52.50
2023-02-16T08:19:38.630Z,52.70
2023-02-16T08:22:14.782Z,52.60
2023-02-16T08:24:48.661Z,52.70
2023-02-16T08:27:24.979Z,53.20
2023-02-16T08:29:59.095Z,53.20
2023-02-16T08:32:33.518Z,52.80
2023-02-16T08:35:08.349Z,53.10
2023-02-16T08:37:42.226Z,52.20
2023-02-16T08:40:16.562Z,51.90
2023-02-16T08:42:52.111Z,51.70
2023-02-16T08:45:25.972Z,51.40
2023-02-16T08:48:01.431Z,51.40
2023-02-16T08:50:37.068Z,51.30
2023-02-16T08:53:11.439Z,51.30
2023-02-16T08:55:53.436Z,51.40
2023-02-16T08:58:28.687Z,51.60
2023-02-16T09:01:08.511Z,51.80
2023-02-16T09:03:43.485Z,51.70
2023-02-16T09:06:20.591Z,51.80
2023-02-16T09:08:56.046Z,51.80
2023-02-16T09:11:29.984Z,51.90
2023-02-16T09:14:06.566Z,52.00
2023-02-16T09:16:45.756Z,52.00
2023-02-16T09:19:21.817Z,52.00
2023-02-16T09:21:56.456Z,52.00
2023-02-16T09:24:30.495Z,52.10
2023-02-16T09:27:04.668Z,52.20
2023-02-16T09:29:40.530Z,52.30
2023-02-16T09:32:15.563Z,52.50
2023-02-16T09:34:51.404Z,52.30
2023-02-16T09:37:25.551Z,52.40
2023-02-16T09:39:59.621Z,52.40
2023-02-16T09:42:48.946Z,52.60
2023-02-16T09:45:27.001Z,52.90
2023-02-16T09:48:00.900Z,53.00
2023-02-16T09:50:53.321Z,53.40
2023-02-16T09:53:36.224Z,53.80
2023-02-16T09:56:20.492Z,54.40
2023-02-16T09:58:59.759Z,54.70
2023-02-16T10:01:42.498Z,54.70
2023-02-16T10:04:28.511Z,54.30
2023-02-16T10:07:16.973Z,54.90
2023-02-16T10:09:55.544Z,54.10
2023-02-16T10:12:35.144Z,54.20
2023-02-16T10:15:16.545Z,54.10
2023-02-16T10:17:55.637Z,54.20
2023-02-16T10:20:34.550Z,54.20
2023-02-16T10:23:18.925Z,54.20
2023-02-16T10:25:57.842Z,54.20
2023-02-16T10:28:41.301Z,54.20
2023-02-16T10:31:20.242Z,54.20
2023-02-16T10:34:13.631Z,54.10
2023-02-16T10:37:20.137Z,54.20
2023-02-16T10:40:06.074Z,54.30
2023-02-16T10:42:45.851Z,54.50
2023-02-16T10:45:27.153Z,54.60
2023-02-16T10:48:02.115Z,54.60
2023-02-16T10:50:43.184Z,54.80
2023-02-16T10:53:21.087Z,55.00
2023-02-16T10:55:55.230Z,51.40
2023-02-16T10:58:39.275Z,44.50
2023-02-16T11:01:15.607Z,39.70
2023-02-16T11:03:52.145Z,37.90
2023-02-16T11:06:29.133Z,39.20
2023-02-16T11:09:04.688Z,38.30
2023-02-16T11:11:40.971Z,38.50
2023-02-16T11:14:24.518Z,39.70
2023-02-16T11:17:08.747Z,40.90
2023-02-16T11:19:52.545Z,40.20
2023-02-16T11:22:34.202Z,40.20
2023-02-16T11:25:24.625Z,41.30
2023-02-16T11:28:02.072Z,42.00
2023-02-16T11:30:37.510Z,42.10
2023-02-16T11:33:24.493Z,42.40
2023-02-16T11:35:58.623Z,43.00
2023-02-16T11:38:37.158Z,43.10
2023-02-16T11:41:12.346Z,43.20
2023-02-16T11:43:46.217Z,43.50
2023-02-16T11:46:22.746Z,43.70
2023-02-16T11:48:57.251Z,43.70
2023-02-16T11:51:34.420Z,43.60
2023-02-16T11:54:19.164Z,44.00
2023-02-16T11:57:09.448Z,44.40
2023-02-16T11:59:43.495Z,44.60
2023-02-16T12:02:43.004Z,44.50
2023-02-16T12:05:27.330Z,44.60
2023-02-16T12:08:36.291Z,44.80
2023-02-16T12:11:28.319Z,45.20
2023-02-16T12:14:27.202Z,45.10
2023-02-16T12:17:15.909Z,45.40
2023-02-16T12:19:57.563Z,45.20
2023-02-16T12:22:38.729Z,45.00
2023-02-16T12:25:28.371Z,45.20
2023-02-16T12:28:13.593Z,45.50
2023-02-16T12:30:57.294Z,45.80
2023-02-16T12:33:42.458Z,46.40
2023-02-16T12:36:39.256Z,47.60
2023-02-16T12:39:19.470Z,48.50
2023-02-16T12:42:04.498Z,49.20
2023-02-16T12:44:46.120Z,49.90
2023-02-16T12:47:25.670Z,50.70
2023-02-16T12:50:03.621Z,51.60
2023-02-16T12:52:42.934Z,51.50
2023-02-16T12:55:24.375Z,51.50
2023-02-16T12:58:05.482Z,52.00
2023-02-16T13:00:46.676Z,51.70
2023-02-16T13:03:29.172Z,51.40
2023-02-16T13:06:12.804Z,51.00
2023-02-16T13:08:52.733Z,50.70
2023-02-16T13:11:34.247Z,50.10
2023-02-16T13:14:17.859Z,50.00
2023-02-16T13:16:56.769Z,49.80
2023-02-16T13:19:30.939Z,49.50
2023-02-16T13:22:46.252Z,42.40
2023-02-16T13:25:52.751Z,37.60
2023-02-16T13:28:45.026Z,37.30
2023-02-16T13:31:48.177Z,37.10
2023-02-16T13:34:45.256Z,36.80
2023-02-16T13:37:41.269Z,36.80
2023-02-16T13:40:38.523Z,37.50
2023-02-16T13:43:32.466Z,37.00
2023-02-16T13:46:12.458Z,36.80
2023-02-16T13:48:49.867Z,37.10
2023-02-16T13:51:28.417Z,36.70
2023-02-16T13:54:04.644Z,36.90
2023-02-16T13:56:39.400Z,37.10
2023-02-16T13:59:58.197Z,37.50
2023-02-16T14:03:01.008Z,39.70
2023-02-16T14:05:40.311Z,39.90
2023-02-16T14:08:22.257Z,39.60
2023-02-16T14:11:05.253Z,39.80
2023-02-16T14:13:51.817Z,39.00
2023-02-16T14:16:33.141Z,39.40
2023-02-16T14:19:20.872Z,39.50
2023-02-16T14:21:56.044Z,40.20
2023-02-16T14:24:37.891Z,39.70
2023-02-16T14:27:14.520Z,40.10
2023-02-16T14:29:57.948Z,40.20
2023-02-16T14:32:38.746Z,40.50
2023-02-16T14:35:20.741Z,40.80
2023-02-16T14:38:00.457Z,41.30
2023-02-16T14:40:46.728Z,41.70
2023-02-16T14:43:29.701Z,42.10
2023-02-16T14:46:35.607Z,42.40
2023-02-16T14:49:40.380Z,42.70
2023-02-16T14:52:41.388Z,42.90
2023-02-16T14:55:54.670Z,43.00
2023-02-16T14:58:46.096Z,43.20
2023-02-16T15:01:21.493Z,43.30
2023-02-16T15:03:58.527Z,43.50
2023-02-16T15:06:36.700Z,43.70
2023-02-16T15:09:18.299Z,43.90
2023-02-16T15:12:08.867Z,44.00
2023-02-16T15:14:47.012Z,44.00
2023-02-16T15:17:29.758Z,44.30
2023-02-16T15:20:10.788Z,44.50
2023-02-16T15:22:51.386Z,44.60
2023-02-16T15:25:28.695Z,44.80
2023-02-16T15:28:05.478Z,44.90
2023-02-16T15:30:43.465Z,45.20
2023-02-16T15:33:31.387Z,45.30
2023-02-16T15:36:09.209Z,45.30
2023-02-16T15:38:55.965Z,45.20
2023-02-16T15:41:33.237Z,45.20
2023-02-16T15:44:10.583Z,45.20
2023-02-16T15:46:46.388Z,45.20
2023-02-16T15:49:27.325Z,45.20
2023-02-16T15:52:02.248Z,45.30
2023-02-16T15:54:37.473Z,45.30
2023-02-16T15:57:20.159Z,44.90
2023-02-16T15:59:58.831Z,44.60
2023-02-16T16:02:39.937Z,44.10
2023-02-16T16:05:25.520Z,44.10
2023-02-16T16:08:01.947Z,44.00
2023-02-16T16:10:40.024Z,43.90
2023-02-16T16:13:20.573Z,43.70
2023-02-16T16:16:00.014Z,43.60
2023-02-16T16:18:50.594Z,43.40
2023-02-16T16:21:29.499Z,43.20
2023-02-16T16:24:06.000Z,43.40
2023-02-16T16:26:53.243Z,43.50
2023-02-16T16:29:32.094Z,43.70
2023-02-16T16:32:07.972Z,43.70
2023-02-16T16:34:43.732Z,43.80
2023-02-16T16:37:27.971Z,43.90
2023-02-16T16:40:08.295Z,43.70
2023-02-16T16:43:10.498Z,43.80
2023-02-16T16:45:46.464Z,43.90
2023-02-16T16:48:26.187Z,44.00
2023-02-16T16:51:15.479Z,44.10
2023-02-16T16:53:57.896Z,44.10
2023-02-16T16:56:36.908Z,44.10
2023-02-16T16:59:12.020Z,43.90
2023-02-16T17:01:50.228Z,44.30
2023-02-16T17:04:25.017Z,44.40
2023-02-16T17:07:01.396Z,44.70
2023-02-16T17:09:36.129Z,45.00
2023-02-16T17:12:12.375Z,45.20
2023-02-16T17:14:47.401Z,45.50
2023-02-16T17:17:22.341Z,45.70
2023-02-16T17:19:57.281Z,46.00
2023-02-16T17:22:34.952Z,46.20
2023-02-16T17:25:09.756Z,46.40
2023-02-16T17:27:44.337Z,46.50
2023-02-16T17:30:19.034Z,46.40
2023-02-16T17:32:53.604Z,45.60
2023-02-16T17:35:28.579Z,45.60
2023-02-16T17:38:10.551Z,45.30
2023-02-16T17:40:45.310Z,45.10
2023-02-16T17:43:21.741Z,46.20
2023-02-16T17:46:01.630Z,46.70
2023-02-16T17:48:36.369Z,46.60
2023-02-16T17:51:16.384Z,46.80
2023-02-16T17:53:55.076Z,46.60
2023-02-16T17:56:30.084Z,47.10
2023-02-16T17:59:05.187Z,47.10
2023-02-16T18:01:39.973Z,47.40
2023-02-16T18:04:14.989Z,47.60
2023-02-16T18:06:51.867Z,47.70
2023-02-16T18:09:28.528Z,48.00
2023-02-16T18:12:03.540Z,48.30
2023-02-16T18:14:38.390Z,48.20
2023-02-16T18:17:14.274Z,48.40
2023-02-16T18:19:49.061Z,49.00
2023-02-16T18:22:25.547Z,48.30
2023-02-16T18:25:02.554Z,48.30
2023-02-16T18:27:37.877Z,48.40
2023-02-16T18:30:16.776Z,48.70
2023-02-16T18:32:52.117Z,49.50
2023-02-16T18:35:26.909Z,49.70
2023-02-16T18:38:01.912Z,49.40
2023-02-16T18:40:38.102Z,49.40
2023-02-16T18:43:13.618Z,49.30
2023-02-16T18:45:48.981Z,49.30
2023-02-16T18:48:23.872Z,49.40
2023-02-16T18:50:58.672Z,49.50
2023-02-16T18:53:34.050Z,49.50
2023-02-16T18:56:12.444Z,50.30
2023-02-16T18:58:48.161Z,50.90
2023-02-16T19:01:33.693Z,50.80
2023-02-16T19:04:09.620Z,50.80
2023-02-16T19:06:45.140Z,50.80
2023-02-16T19:09:20.568Z,50.90
2023-02-16T19:11:58.702Z,50.90
2023-02-16T19:14:33.576Z,51.00
2023-02-16T19:17:08.840Z,51.00
2023-02-16T19:19:43.714Z,51.10
2023-02-16T19:22:22.531Z,51.20
2023-02-16T19:24:58.347Z,51.20
2023-02-16T19:27:35.539Z,51.30
2023-02-16T19:30:11.232Z,51.50
2023-02-16T19:32:46.231Z,51.50
2023-02-16T19:35:21.246Z,51.70
2023-02-16T19:37:56.292Z,51.60
2023-02-16T19:40:31.405Z,51.70
2023-02-16T19:43:09.151Z,51.80
2023-02-16T19:45:43.835Z,51.60
2023-02-16T19:48:19.194Z,51.40
2023-02-16T19:50:58.971Z,51.50
2023-02-16T19:53:34.638Z,51.50
2023-02-16T19:56:11.893Z,51.40
2023-02-16T19:58:48.688Z,51.30
2023-02-16T20:01:25.492Z,51.30
2023-02-16T20:04:03.296Z,51.60
2023-02-16T20:06:41.425Z,51.40
2023-02-16T20:09:18.030Z,51.10
2023-02-16T20:11:53.793Z,51.10
2023-02-16T20:14:30.121Z,51.00
2023-02-16T20:17:04.979Z,51.00
2023-02-16T20:19:40.021Z,50.90
2023-02-16T20:22:14.898Z,51.00
2023-02-16T20:24:49.681Z,50.90
2023-02-16T20:27:24.685Z,50.90
2023-02-16T20:30:01.017Z,50.90
2023-02-16T20:32:36.259Z,50.90
2023-02-16T20:35:11.183Z,50.90
2023-02-16T20:37:46.051Z,51.00
2023-02-16T20:40:22.822Z,51.00
2023-02-16T20:42:57.690Z,50.80
2023-02-16T20:45:35.478Z,50.80
2023-02-16T20:48:10.688Z,50.90
2023-02-16T20:50:45.414Z,50.90
2023-02-16T20:53:20.255Z,50.90
2023-02-16T20:56:03.394Z,50.90
2023-02-16T20:58:39.611Z,50.90
2023-02-16T21:01:17.859Z,50.80
2023-02-16T21:03:53.935Z,50.80
2023-02-16T21:06:29.456Z,50.90
2023-02-16T21:09:04.380Z,51.50
2023-02-16T21:11:40.118Z,51.50
2023-02-16T21:14:14.858Z,51.40
2023-02-16T21:16:50.866Z,51.00
2023-02-16T21:19:25.565Z,51.10
2023-02-16T21:22:00.197Z,51.10
2023-02-16T21:24:34.958Z,51.40
2023-02-16T21:27:09.464Z,51.50
2023-02-16T21:29:44.046Z,52.00
2023-02-16T21:32:20.195Z,52.30
2023-02-16T21:34:54.157Z,52.40
2023-02-16T21:37:28.338Z,52.40
2023-02-16T21:40:19.736Z,52.40
2023-02-16T21:42:54.256Z,52.60
2023-02-16T21:45:28.530Z,52.70
2023-02-16T21:48:21.546Z,53.30
2023-02-16T21:50:55.687Z,53.50
2023-02-16T21:53:31.047Z,53.30
2023-02-16T21:56:18.183Z,53.10
2023-02-16T21:58:52.522Z,53.10
2023-02-16T22:01:29.061Z,53.10
2023-02-16T22:04:05.743Z,53.00
2023-02-16T22:06:41.952Z,53.10
2023-02-16T22:09:18.721Z,53.10
2023-02-16T22:11:53.048Z,53.00
2023-02-16T22:14:27.135Z,53.10
2023-02-16T22:17:02.064Z,53.10
2023-02-16T22:19:37.301Z,53.10
2023-02-16T22:22:11.083Z,53.10
2023-02-16T22:24:44.570Z,53.10
2023-02-16T22:27:18.329Z,53.00
2023-02-16T22:29:52.277Z,52.90
2023-02-16T22:32:26.133Z,53.00
2023-02-16T22:35:01.275Z,53.00
2023-02-16T22:37:35.183Z,53.00
2023-02-16T22:40:09.504Z,53.00
2023-02-16T22:42:43.292Z,53.20
2023-02-16T22:45:16.806Z,53.20
2023-02-16T22:47:50.585Z,53.20
2023-02-16T22:50:25.501Z,53.90
2023-02-16T22:52:59.262Z,53.80
2023-02-16T22:55:32.809Z,53.80
2023-02-16T22:58:06.559Z,54.20
2023-02-16T23:00:40.455Z,54.00
2023-02-16T23:03:13.918Z,54.10
2023-02-16T23:05:49.261Z,54.00
2023-02-16T23:08:23.888Z,53.80
2023-02-16T23:11:03.798Z,53.80
2023-02-16T23:13:38.266Z,53.80
2023-02-16T23:16:16.804Z,53.70
2023-02-16T23:18:51.276Z,53.70
2023-02-16T23:21:28.563Z,53.60
2023-02-16T23:24:02.625Z,53.50
2023-02-16T23:26:36.401Z,53.50
2023-02-16T23:29:09.938Z,53.40
2023-02-16T23:31:46.934Z,53.40
2023-02-16T23:34:21.922Z,53.30
2023-02-16T23:36:57.177Z,53.20
2023-02-16T23:39:30.994Z,53.20
2023-02-16T23:42:04.482Z,53.10
2023-02-16T23:44:38.206Z,53.20
2023-02-16T23:47:11.685Z,53.10
2023-02-16T23:49:45.425Z,53.10
2023-02-16T23:52:20.293Z,53.00
2023-02-16T23:54:54.027Z,53.00
2023-02-16T23:57:27.505Z,52.90
